St. Paul Lake Elmo, MN

12:03 AM CST on December 14, 2019 (GMT -0600)
St. Paul Lake Elmo

Weather History for K21D - November, 2019

Change the Weather History Date:

Thursday, November 14, 2019

  Actual Average (KSTP) Record (KSTP)
Temperature  
Mean Temperature 26 °F -  
Max Temperature 32 °F 41 °F 63 °F (2001)
Min Temperature 21 °F 26 °F 10 °F (2014)
Degree Days  
Heating Degree Days 38    
Moisture  
Dew Point 18 °F    
Average Humidity 72    
Maximum Humidity 86    
Minimum Humidity 55    
Precipitation  
Precipitation 0.00 in - - ()
Sea Level Pressure  
Sea Level Pressure 30.19 in    
Wind  
Wind Speed 6 mph (West)    
Max Wind Speed 14 mph    
Max Gust Speed 16 mph    
Visibility 10 miles    
Events      
Averages and records for this station are not official NWS values.
T = Trace of Precipitation, MM = Missing Value Source: NWS Daily Summary

Daily Weather History Graph

Daily Weather History Graph

Search for Another Location

Airport or City:

Astronomy

Nov. 14, 2019 Rise Set
Actual Time 7:07 AM CST 4:43 PM CST
Civil Twilight 6:35 AM CST 5:15 PM CST
Nautical Twilight 6:00 AM CST 5:50 PM CST
Astronomical Twilight 5:25 AM CST 6:25 PM CST
Moon 6:26 PM CST 9:06 AM CST
Length of Visible Light 10h 39m
Length of Day
9h 36m
Waning Gibbous, 95% of the Moon is Illuminated
Nov 14
Waning Gibbous
Nov 19
Last Quarter
Nov 26
New
Dec 4
First Quarter
Dec 11
Full

Hourly Weather History & Observations

Time (CST) Temp. Windchill Dew Point Humidity Pressure Visibility Wind Dir Wind Speed Gust Speed Precip Events Conditions
12:15 AM 26.6 °F 22.6 °F 19.4 °F 74% 30.10 in 10.0 mi NW 3.5 mph - N/A   Overcast
12:35 AM 26.6 °F - 19.4 °F 74% 30.11 in 10.0 mi Calm Calm - N/A   Overcast
12:36 AM 26.6 °F 22.6 °F 19.4 °F 74% 30.11 in 10.0 mi WNW 3.5 mph - N/A   Overcast
12:55 AM 26.6 °F 22.6 °F 19.4 °F 74% 30.11 in 10.0 mi North 3.5 mph - N/A   Overcast
1:18 AM 28.4 °F 23.3 °F 19.4 °F 69% 30.11 in 10.0 mi NW 4.6 mph - N/A   Overcast
1:37 AM 26.6 °F 20.0 °F 19.4 °F 74% 30.12 in 10.0 mi NW 5.8 mph - N/A   Overcast
1:56 AM 26.6 °F 21.2 °F 21.2 °F 80% 30.13 in 10.0 mi NW 4.6 mph - N/A   Overcast
2:15 AM 26.6 °F 19.1 °F 19.4 °F 74% 30.13 in 10.0 mi NW 6.9 mph - N/A   Overcast
2:16 AM 26.6 °F 20.0 °F 19.4 °F 74% 30.13 in 10.0 mi NW 5.8 mph - N/A   Overcast
2:35 AM 26.6 °F 20.0 °F 19.4 °F 74% 30.14 in 10.0 mi NNW 5.8 mph - N/A   Overcast
2:39 AM 26.6 °F - 19.4 °F 74% 30.14 in 10.0 mi Calm Calm - N/A   Overcast
2:57 AM 26.6 °F 20.0 °F 19.4 °F 74% 30.14 in 10.0 mi NW 5.8 mph - N/A   Overcast
3:16 AM 26.6 °F 19.1 °F 19.4 °F 74% 30.14 in 10.0 mi NNW 6.9 mph - N/A   Overcast
3:35 AM 26.6 °F 19.1 °F 17.6 °F 69% 30.15 in 10.0 mi NNW 6.9 mph - N/A   Overcast
3:36 AM 26.6 °F 20.0 °F 17.6 °F 69% 30.15 in 10.0 mi NNW 5.8 mph - N/A   Overcast
3:55 AM 26.6 °F 17.5 °F 17.6 °F 69% 30.16 in 10.0 mi NNW 9.2 mph - N/A   Overcast
3:56 AM 26.6 °F 17.5 °F 17.6 °F 69% 30.16 in 10.0 mi NNW 9.2 mph - N/A   Overcast
4:18 AM 24.8 °F 16.9 °F 17.6 °F 74% 30.17 in 10.0 mi NNW 6.9 mph - N/A   Overcast
4:36 AM 24.8 °F 17.9 °F 17.6 °F 74% 30.17 in 10.0 mi NW 5.8 mph - N/A   Overcast
4:56 AM 24.8 °F 19.1 °F 17.6 °F 74% 30.18 in 10.0 mi NW 4.6 mph - N/A   Overcast
5:15 AM 23.0 °F 15.8 °F 17.6 °F 80% 30.18 in 10.0 mi NNW 5.8 mph - N/A   Overcast
5:16 AM 23.0 °F 17.0 °F 17.6 °F 80% 30.19 in 10.0 mi NNW 4.6 mph - N/A   Overcast
5:35 AM 23.0 °F 14.7 °F 17.6 °F 80% 30.19 in 10.0 mi WNW 6.9 mph - N/A   Overcast
5:57 AM 23.0 °F 13.9 °F 15.8 °F 74% 30.19 in 10.0 mi WNW 8.1 mph - N/A   Overcast
6:16 AM 23.0 °F 13.9 °F 15.8 °F 74% 30.20 in 10.0 mi WNW 8.1 mph - N/A   Overcast
6:35 AM 23.0 °F 14.7 °F 15.8 °F 74% 30.20 in 10.0 mi NW 6.9 mph - N/A   Overcast
6:36 AM 23.0 °F 14.7 °F 15.8 °F 74% 30.20 in 10.0 mi WNW 6.9 mph - N/A   Overcast
6:56 AM 23.0 °F 14.7 °F 15.8 °F 74% 30.21 in 10.0 mi WNW 6.9 mph - N/A   Overcast
7:19 AM 23.0 °F 14.7 °F 15.8 °F 74% 30.22 in 10.0 mi WNW 6.9 mph - N/A   Overcast
7:36 AM 21.2 °F 11.7 °F 14.0 °F 74% 30.22 in 10.0 mi WNW 8.1 mph - N/A   Overcast
7:56 AM 21.2 °F 13.6 °F 14.0 °F 74% 30.23 in 10.0 mi WNW 5.8 mph - N/A   Overcast
8:15 AM 21.2 °F 12.6 °F 14.0 °F 74% 30.24 in 10.0 mi West 6.9 mph - N/A   Mostly Cloudy
8:35 AM 21.2 °F 12.6 °F 14.0 °F 74% 30.24 in 10.0 mi West 6.9 mph - N/A   Scattered Clouds
8:39 AM 21.2 °F 12.6 °F 14.0 °F 74% 30.24 in 10.0 mi West 6.9 mph - N/A   Clear
8:57 AM 21.2 °F 11.7 °F 14.0 °F 74% 30.24 in 10.0 mi West 8.1 mph - N/A   Clear
9:15 AM 23.0 °F 13.1 °F 14.0 °F 68% 30.24 in 10.0 mi West 9.2 mph - N/A   Scattered Clouds
9:35 AM 23.0 °F 13.1 °F 15.8 °F 74% 30.25 in 10.0 mi West 9.2 mph - N/A   Overcast
9:36 AM 23.0 °F 13.9 °F 15.8 °F 74% 30.25 in 10.0 mi West 8.1 mph - N/A   Overcast
9:55 AM 23.0 °F 13.1 °F 14.0 °F 68% 30.25 in 10.0 mi West 9.2 mph - N/A   Mostly Cloudy
9:56 AM 23.0 °F 13.1 °F 14.0 °F 68% 30.26 in 10.0 mi West 9.2 mph - N/A   Mostly Cloudy
10:19 AM 24.8 °F 14.6 °F 15.8 °F 69% 30.25 in 10.0 mi West 10.4 mph - N/A   Scattered Clouds
10:36 AM 24.8 °F 14.6 °F 14.0 °F 64% 30.25 in 10.0 mi West 10.4 mph - N/A   Clear
10:56 AM 26.6 °F 17.5 °F 14.0 °F 59% 30.23 in 10.0 mi WSW 9.2 mph - N/A   Clear
11:15 AM 26.6 °F 18.2 °F 14.0 °F 59% 30.24 in 10.0 mi WSW 8.1 mph - N/A   Clear
11:35 AM 26.6 °F 17.5 °F 15.8 °F 64% 30.24 in 10.0 mi West 9.2 mph - N/A   Clear
11:39 AM 26.6 °F 18.2 °F 15.8 °F 64% 30.24 in 10.0 mi West 8.1 mph 16.1 mph N/A   Clear
11:58 AM 28.4 °F 19.7 °F 15.8 °F 59% 30.23 in 10.0 mi West 9.2 mph - N/A   Clear
12:15 PM 28.4 °F 19.7 °F 15.8 °F 59% 30.23 in 10.0 mi West 9.2 mph - N/A   Clear
12:35 PM 28.4 °F 20.4 °F 17.6 °F 64% 30.23 in 10.0 mi West 8.1 mph - N/A   Clear
12:36 PM 28.4 °F 19.7 °F 17.6 °F 64% 30.23 in 10.0 mi West 9.2 mph - N/A   Clear
12:55 PM 28.4 °F 18.0 °F 17.6 °F 64% 30.23 in 10.0 mi West 12.7 mph - N/A   Clear
1:18 PM 30.2 °F 21.3 °F 17.6 °F 60% 30.22 in 10.0 mi WSW 10.4 mph - N/A   Clear
1:36 PM 30.2 °F 20.8 °F 17.6 °F 60% 30.21 in 10.0 mi SW 11.5 mph - N/A   Clear
1:56 PM 30.2 °F 22.6 °F 17.6 °F 60% 30.20 in 10.0 mi WSW 8.1 mph - N/A   Clear
2:15 PM 32.0 °F 23.0 °F 17.6 °F 55% 30.20 in 10.0 mi WSW 11.5 mph - N/A   Scattered Clouds
2:16 PM 32.0 °F 22.1 °F 17.6 °F 55% 30.20 in 10.0 mi WSW 13.8 mph - N/A   Scattered Clouds
2:35 PM 30.2 °F 20.8 °F 17.6 °F 60% 30.20 in 10.0 mi WSW 11.5 mph - N/A   Overcast
2:39 PM 30.2 °F 21.3 °F 17.6 °F 60% 30.20 in 10.0 mi WSW 10.4 mph - N/A   Overcast
2:58 PM 30.2 °F 21.9 °F 17.6 °F 60% 30.19 in 10.0 mi WSW 9.2 mph 16.1 mph N/A   Overcast
3:15 PM 30.2 °F 22.6 °F 19.4 °F 64% 30.18 in 10.0 mi SW 8.1 mph - N/A   Overcast
3:35 PM 30.2 °F 20.2 °F 19.4 °F 64% 30.18 in 10.0 mi SSW 12.7 mph - N/A   Overcast
3:36 PM 30.2 °F 20.8 °F 19.4 °F 64% 30.17 in 10.0 mi SSW 11.5 mph - N/A   Overcast
3:55 PM 32.0 °F 23.0 °F 19.4 °F 60% 30.17 in 10.0 mi SSW 11.5 mph - N/A   Overcast
4:16 PM 30.2 °F 21.3 °F 19.4 °F 64% 30.17 in 10.0 mi SW 10.4 mph - N/A   Scattered Clouds
4:35 PM 30.2 °F 22.6 °F 19.4 °F 64% 30.17 in 10.0 mi SW 8.1 mph - N/A   Clear
4:36 PM 30.2 °F 22.6 °F 19.4 °F 64% 30.17 in 10.0 mi SW 8.1 mph - N/A   Clear
4:55 PM 30.2 °F 21.9 °F 19.4 °F 64% 30.16 in 10.0 mi SSW 9.2 mph - N/A   Clear
5:18 PM 30.2 °F 22.6 °F 19.4 °F 64% 30.16 in 10.0 mi SSW 8.1 mph - N/A   Clear
5:37 PM 28.4 °F 21.2 °F 19.4 °F 69% 30.16 in 10.0 mi SSW 6.9 mph - N/A   Clear
5:55 PM 28.4 °F 20.4 °F 19.4 °F 69% 30.16 in 10.0 mi SW 8.1 mph - N/A   Clear
5:56 PM 28.4 °F 19.7 °F 19.4 °F 69% 30.16 in 10.0 mi SW 9.2 mph - N/A   Clear
6:15 PM 28.4 °F 19.7 °F 19.4 °F 69% 30.17 in 10.0 mi SW 9.2 mph - N/A   Clear
6:35 PM 28.4 °F 19.1 °F 21.2 °F 74% 30.16 in 10.0 mi SW 10.4 mph - N/A   Clear
6:39 PM 28.4 °F 18.5 °F 21.2 °F 74% 30.16 in 10.0 mi SSW 11.5 mph - N/A   Clear
6:58 PM 28.4 °F 19.7 °F 21.2 °F 74% 30.16 in 10.0 mi SSW 9.2 mph - N/A   Clear
7:16 PM 28.4 °F 22.2 °F 21.2 °F 74% 30.17 in 10.0 mi SSW 5.8 mph - N/A   Clear
7:35 PM 28.4 °F 22.2 °F 19.4 °F 69% 30.18 in 10.0 mi SSW 5.8 mph - N/A   Clear
7:36 PM 28.4 °F 22.2 °F 19.4 °F 69% 30.18 in 10.0 mi SSW 5.8 mph - N/A   Clear
7:55 PM 24.8 °F 19.1 °F 19.4 °F 80% 30.17 in 10.0 mi South 4.6 mph - N/A   Clear
7:56 PM 24.8 °F 19.1 °F 19.4 °F 80% 30.17 in 10.0 mi South 4.6 mph - N/A   Clear
8:17 PM 24.8 °F 16.9 °F 19.4 °F 80% 30.17 in 10.0 mi South 6.9 mph - N/A   Clear
8:35 PM 23.0 °F 17.0 °F 19.4 °F 86% 30.17 in 10.0 mi South 4.6 mph - N/A   Clear
8:55 PM 24.8 °F 20.5 °F 19.4 °F 80% 30.17 in 10.0 mi South 3.5 mph - N/A   Clear
8:56 PM 24.8 °F 20.5 °F 19.4 °F 80% 30.17 in 10.0 mi South 3.5 mph - N/A   Clear
9:15 PM 23.0 °F - 19.4 °F 86% 30.18 in 10.0 mi Calm Calm - N/A   Scattered Clouds
9:16 PM 23.0 °F - 19.4 °F 86% 30.18 in 10.0 mi Calm Calm - N/A   Scattered Clouds
9:39 PM 26.6 °F 22.6 °F 21.2 °F 80% 30.18 in 10.0 mi South 3.5 mph - N/A   Overcast
9:57 PM 26.6 °F 22.6 °F 23.0 °F 86% 30.18 in 10.0 mi South 3.5 mph - N/A   Overcast
10:15 PM 28.4 °F - 23.0 °F 80% 30.19 in 10.0 mi Calm Calm - N/A   Overcast
10:16 PM 28.4 °F - 23.0 °F 80% 30.19 in 10.0 mi Calm Calm - N/A   Overcast
10:35 PM 28.4 °F - 23.0 °F 80% 30.19 in 10.0 mi Calm Calm - N/A   Overcast
10:59 PM 28.4 °F - 23.0 °F 80% 30.19 in 10.0 mi Calm Calm - N/A   Overcast
11:17 PM 28.4 °F - 24.8 °F 86% 30.19 in 10.0 mi Calm Calm - N/A   Overcast
11:36 PM 30.2 °F - 26.6 °F 86% 30.19 in 10.0 mi Calm Calm - N/A   Overcast
11:55 PM 30.2 °F 25.4 °F 26.6 °F 86% 30.20 in 10.0 mi West 4.6 mph - N/A   Overcast
11:56 PM 30.2 °F 25.4 °F 26.6 °F 86% 30.20 in 10.0 mi West 4.6 mph - N/A   Overcast